sim
Sign-in with your pilot id or email,
or register
Callsign
Passwort

Schedule Details

Flight Number: DLH2053
Departure: Berlin Tegel Airport (EDDT) at 05:30
Arrival: Munich Airport (EDDM) at 06:40
Route: Lufthansa Passenger Schedule. Enter filed route here before submitting Pirep.

Weather Information
Getting current METAR information for EDDT 210320Z VRB02KT CAVOK 09/06 Q1018 NOSIG
Getting current METAR information for EDDM 210320Z 15001KT CAVOK 08/07 Q1016 NOSIG

Schedule Frequency

Route Map